Time;durP1;ratioP1;P1;durP2;ratioP2;P2;SDS_P1;SDS_P2;PMS_P1;PMS_P2;Temp;Humidity;BMP_temperature;BMP_pressure;BME280_temperature;BME280_humidity;BME280_pressure;Samples;Min_cycle;Max_cycle;Signal;HPM_P1;HPM_P2
2022/12/15 00:41:07;;;;;;;27.60;5.60;;;;;;;;;;4978602;28;20455;-68
2022/12/15 00:43:34;;;;;;;28.35;4.85;;;;;;;;;;4978908;28;20041;-66
2022/12/15 00:48:46;;;;;;;24.77;4.22;;;;;;;;;;4977170;28;20216;-66
2022/12/15 00:51:13;;;;;;;26.13;4.80;;;;;;;;;;4970204;28;20029;-66
2022/12/15 01:21:09;;;;;;;23.63;4.05;;;;;;;;;;4974168;28;20391;-66
2022/12/15 01:23:36;;;;;;;23.95;3.78;;;;;;;;;;4973512;28;20033;-66
2022/12/15 01:26:03;;;;;;;26.05;5.00;;;;;;;;;;4976193;28;20202;-66
2022/12/15 01:28:29;;;;;;;30.42;5.35;;;;;;;;;;4970886;28;20030;-66
2022/12/15 01:30:58;;;;;;;27.35;4.25;;;;;;;;;;4979664;28;20106;-65
2022/12/15 01:33:24;;;;;;;24.58;4.72;;;;;;;;;;4978880;28;20033;-66
2022/12/15 01:36:01;;;;;;;26.73;4.10;;;;;;;;;;4974618;28;20030;-66
2022/12/15 01:38:27;;;;;;;23.63;3.78;;;;;;;;;;4972091;28;20038;-66
2022/12/15 01:41:04;;;;;;;22.95;5.70;;;;;;;;;;4971177;28;20472;-66
2022/12/15 01:43:33;;;;;;;28.30;4.93;;;;;;;;;;4971343;28;20447;-65
2022/12/15 01:46:02;;;;;;;29.42;4.65;;;;;;;;;;4974057;28;20677;-66
2022/12/15 01:48:28;;;;;;;23.08;3.72;;;;;;;;;;4970234;28;20041;-66
2022/12/15 01:51:04;;;;;;;23.15;5.05;;;;;;;;;;4974981;28;20069;-66
2022/12/15 01:53:32;;;;;;;28.25;5.00;;;;;;;;;;4970177;28;20494;-66
2022/12/15 01:55:59;;;;;;;32.33;4.72;;;;;;;;;;4969041;28;20030;-66
2022/12/15 01:58:26;;;;;;;31.73;4.75;;;;;;;;;;4972056;28;20064;-67
2022/12/15 02:00:52;;;;;;;33.78;5.60;;;;;;;;;;4975905;28;20458;-65
2022/12/15 02:03:18;;;;;;;;;;;;;;;;;;4974055;28;20864;-66
2022/12/15 02:05:45;;;;;;;30.05;4.85;;;;;;;;;;4973700;28;20183;-66
2022/12/15 02:08:11;;;;;;;28.48;5.55;;;;;;;;;;4975489;28;20044;-66
2022/12/15 02:10:50;;;;;;;25.90;4.22;;;;;;;;;;4973761;28;20038;-66
2022/12/15 02:13:22;;;;;;;29.83;4.00;;;;;;;;;;4972282;28;20049;-66
2022/12/15 02:15:51;;;;;;;27.33;4.63;;;;;;;;;;4977111;28;20033;-65
2022/12/15 02:18:18;;;;;;;31.88;4.45;;;;;;;;;;4974550;28;20050;-66
2022/12/15 02:20:47;;;;;;;32.50;4.90;;;;;;;;;;4974252;28;20107;-66
2022/12/15 02:23:26;;;;;;;30.30;4.93;;;;;;;;;;4971040;28;20291;-66
2022/12/15 02:25:55;;;;;;;26.75;4.60;;;;;;;;;;4974567;28;20059;-66
2022/12/15 02:28:41;;;;;;;23.88;4.10;;;;;;;;;;4973774;28;20195;-66
2022/12/15 02:34:10;;;;;;;26.48;4.63;;;;;;;;;;4972333;28;20458;-67
2022/12/15 02:36:39;;;;;;;23.35;3.95;;;;;;;;;;4968318;28;20034;-67
2022/12/15 02:39:05;;;;;;;27.13;4.63;;;;;;;;;;4971441;28;20096;-66
2022/12/15 02:41:37;;;;;;;24.52;4.03;;;;;;;;;;4965156;28;20307;-66
2022/12/15 02:44:09;;;;;;;24.25;3.78;;;;;;;;;;4973197;28;20524;-66
2022/12/15 02:46:55;;;;;;;24.73;4.18;;;;;;;;;;4970546;28;20342;-66
2022/12/15 02:49:25;;;;;;;22.98;3.60;;;;;;;;;;4969835;28;20128;-66
2022/12/15 02:52:14;;;;;;;24.55;4.03;;;;;;;;;;4971004;28;20030;-66
2022/12/15 02:54:50;;;;;;;23.02;4.25;;;;;;;;;;4895728;28;20599;-66
2022/12/15 02:57:45;;;;;;;28.90;4.28;;;;;;;;;;4909559;28;20043;-66
2022/12/15 03:00:12;;;;;;;22.48;4.13;;;;;;;;;;4902093;28;20046;-66
2022/12/15 03:02:40;;;;;;;24.52;4.25;;;;;;;;;;4894698;28;20155;-66
2022/12/15 03:05:07;;;;;;;26.00;4.43;;;;;;;;;;4911429;28;20081;-66
2022/12/15 03:07:33;;;;;;;22.73;3.95;;;;;;;;;;4905182;28;20047;-65
2022/12/15 03:10:00;;;;;;;23.92;3.85;;;;;;;;;;4906723;28;20050;-66
2022/12/15 03:12:26;;;;;;;24.33;3.95;;;;;;;;;;4892979;28;20047;-66
2022/12/15 03:14:53;;;;;;;24.88;3.88;;;;;;;;;;4903837;28;20039;-68
2022/12/15 03:17:19;;;;;;;;;;;;;;;;;;4910625;28;20047;-65
2022/12/15 03:19:45;;;;;;;28.35;3.67;;;;;;;;;;4909677;28;19942;-68
2022/12/15 03:22:11;;;;;;;25.50;3.72;;;;;;;;;;4909702;28;20035;-66
2022/12/15 03:24:37;;;;;;;21.15;3.63;;;;;;;;;;4906264;28;20050;-66
2022/12/15 03:27:04;;;;;;;22.10;4.03;;;;;;;;;;4912526;28;20043;-66
2022/12/15 03:29:30;;;;;;;;;;;;;;;;;;4903382;28;20242;-67
2022/12/15 03:31:56;;;;;;;27.55;4.13;;;;;;;;;;4937916;28;20372;-66
2022/12/15 03:34:22;;;;;;;34.10;4.97;;;;;;;;;;4970912;28;20111;-66
2022/12/15 03:36:48;;;;;;;29.98;4.93;;;;;;;;;;4972788;28;22330;-66
2022/12/15 03:39:14;;;;;;;32.50;4.88;;;;;;;;;;4969493;28;20269;-67
2022/12/15 03:41:40;;;;;;;35.40;5.05;;;;;;;;;;4973917;28;20053;-65
2022/12/15 03:44:07;;;;;;;20.92;3.65;;;;;;;;;;4974571;28;20049;-65
2022/12/15 03:46:33;;;;;;;30.50;5.40;;;;;;;;;;4976567;28;20029;-66
2022/12/15 03:48:59;;;;;;;28.15;4.30;;;;;;;;;;4966913;28;20034;-66
2022/12/15 03:51:25;;;;;;;31.77;4.97;;;;;;;;;;4967617;28;20404;-66
2022/12/15 03:53:52;;;;;;;28.42;4.97;;;;;;;;;;4971018;28;20079;-66
2022/12/15 03:56:19;;;;;;;33.05;5.95;;;;;;;;;;4971847;28;20218;-66
2022/12/15 03:58:45;;;;;;;30.10;5.53;;;;;;;;;;4972534;28;20034;-66
2022/12/15 04:01:13;;;;;;;40.30;5.70;;;;;;;;;;4996484;28;20193;-67
2022/12/15 04:03:39;;;;;;;35.42;5.60;;;;;;;;;;4978035;28;20115;-66
2022/12/15 04:06:05;;;;;;;36.35;5.32;;;;;;;;;;4969841;28;20034;-66
2022/12/15 04:08:31;;;;;;;;;;;;;;;;;;4981516;28;20372;-68
2022/12/15 04:10:57;;;;;;;25.58;4.75;;;;;;;;;;4977986;28;19920;-66
2022/12/15 04:13:23;;;;;;;27.42;4.20;;;;;;;;;;4972480;28;20119;-66
2022/12/15 04:15:50;;;;;;;27.20;4.38;;;;;;;;;;4975669;28;20029;-66
2022/12/15 04:18:16;;;;;;;23.85;4.38;;;;;;;;;;4972937;28;20531;-65
2022/12/15 04:20:42;;;;;;;22.95;4.28;;;;;;;;;;4977483;28;20345;-66
2022/12/15 04:23:09;;;;;;;24.83;3.85;;;;;;;;;;4980025;28;20444;-65
2022/12/15 05:32:07;;;;;;;31.42;5.40;;;;;;;;;;4977012;28;20091;-66
2022/12/15 05:34:34;;;;;;;32.22;5.13;;;;;;;;;;4966953;28;20535;-66
2022/12/15 05:37:01;;;;;;;36.38;5.78;;;;;;;;;;4975211;28;20125;-66
2022/12/15 05:39:28;;;;;;;32.88;5.00;;;;;;;;;;4969604;28;20337;-65
2022/12/15 05:41:55;;;;;;;28.98;5.63;;;;;;;;;;4978212;28;20730;-66
2022/12/15 05:44:21;;;;;;;31.45;5.53;;;;;;;;;;4972928;28;20576;-66
2022/12/15 05:46:47;;;;;;;;;;;;;;;;;;4975987;28;20053;-66
2022/12/15 05:49:14;;;;;;;32.72;5.47;;;;;;;;;;4974112;28;20044;-65
2022/12/15 05:51:41;;;;;;;35.30;5.75;;;;;;;;;;4975414;28;20727;-65
2022/12/15 05:54:08;;;;;;;35.45;4.75;;;;;;;;;;4989581;28;20383;-65
2022/12/15 05:56:34;;;;;;;31.92;4.97;;;;;;;;;;4970401;28;20022;-65
2022/12/15 05:59:01;;;;;;;24.88;4.53;;;;;;;;;;4975037;28;20624;-65
2022/12/15 06:01:28;;;;;;;29.40;5.28;;;;;;;;;;4971369;28;20027;-65
2022/12/15 06:03:54;;;;;;;28.70;4.72;;;;;;;;;;4975867;28;20021;-66
2022/12/15 06:06:20;;;;;;;;;;;;;;;;;;4973430;28;20038;-66
2022/12/15 06:08:46;;;;;;;27.55;5.60;;;;;;;;;;4990570;28;19913;-66
2022/12/15 06:11:14;;;;;;;28.63;5.03;;;;;;;;;;4974771;28;20583;-66
2022/12/15 06:13:40;;;;;;;24.67;4.10;;;;;;;;;;4971375;28;20714;-65
2022/12/15 06:16:06;;;;;;;;;;;;;;;;;;4977518;28;20160;-66
2022/12/15 06:18:34;;;;;;;30.48;5.40;;;;;;;;;;4965496;28;20579;-66
2022/12/15 06:21:02;;;;;;;30.15;5.00;;;;;;;;;;4989490;28;20141;-66
2022/12/15 06:23:29;;;;;;;26.17;4.88;;;;;;;;;;4969789;28;20096;-66
2022/12/15 06:25:55;;;;;;;27.35;4.32;;;;;;;;;;4980361;28;20029;-65
2022/12/15 06:28:23;;;;;;;29.23;4.72;;;;;;;;;;4967653;28;20034;-66
2022/12/15 06:30:51;;;;;;;24.88;4.95;;;;;;;;;;4974147;28;20087;-66
2022/12/15 06:33:17;;;;;;;26.52;5.22;;;;;;;;;;4968901;28;20841;-66
2022/12/15 06:35:43;;;;;;;29.83;5.38;;;;;;;;;;4974314;28;20029;-66
2022/12/15 06:38:10;;;;;;;34.70;5.70;;;;;;;;;;4970154;28;20449;-66
2022/12/15 06:40:36;;;;;;;26.73;4.75;;;;;;;;;;4971260;28;20034;-66
2022/12/15 06:43:02;;;;;;;34.33;5.40;;;;;;;;;;4967026;28;20042;-68
2022/12/15 06:45:28;;;;;;;30.60;5.82;;;;;;;;;;4965514;28;20669;-66
2022/12/15 06:47:54;;;;;;;31.75;5.40;;;;;;;;;;4978294;28;20361;-66
2022/12/15 06:50:20;;;;;;;;;;;;;;;;;;4972315;28;21112;-65
2022/12/15 06:52:46;;;;;;;26.30;4.85;;;;;;;;;;4976932;28;19940;-66
2022/12/15 06:55:13;;;;;;;29.58;5.45;;;;;;;;;;4972991;28;20427;-67
2022/12/15 06:57:39;;;;;;;32.20;5.72;;;;;;;;;;4973002;28;20211;-65
2022/12/15 07:00:05;;;;;;;;;;;;;;;;;;4975671;28;20559;-65
2022/12/15 07:02:31;;;;;;;28.85;4.90;;;;;;;;;;4970112;28;19920;-67
2022/12/15 07:04:57;;;;;;;;;;;;;;;;;;4975969;28;20332;-67
2022/12/15 07:07:24;;;;;;;33.10;5.55;;;;;;;;;;4965360;28;19917;-65
2022/12/15 07:09:50;;;;;;;;;;;;;;;;;;4971907;28;20101;-67
2022/12/15 07:12:16;;;;;;;32.50;4.95;;;;;;;;;;4968998;28;20044;-66
2022/12/15 07:14:43;;;;;;;25.40;4.70;;;;;;;;;;4977037;28;20030;-66
2022/12/15 07:17:09;;;;;;;;;;;;;;;;;;4972863;28;20034;-66
2022/12/15 07:19:36;;;;;;;26.48;4.88;;;;;;;;;;4970602;28;20465;-66
2022/12/15 07:22:02;;;;;;;36.55;5.97;;;;;;;;;;4971230;28;20029;-66
2022/12/15 07:24:28;;;;;;;;;;;;;;;;;;4969835;28;20033;-67
2022/12/15 07:26:54;;;;;;;27.25;5.05;;;;;;;;;;4972405;28;19917;-66
2022/12/15 07:29:20;;;;;;;26.27;4.60;;;;;;;;;;4970116;28;20333;-66
2022/12/15 07:31:47;;;;;;;33.63;5.40;;;;;;;;;;4971611;28;20128;-66
2022/12/15 07:34:13;;;;;;;29.38;5.15;;;;;;;;;;4973631;28;20038;-66
2022/12/15 07:36:39;;;;;;;29.13;4.57;;;;;;;;;;4975297;28;20388;-66
2022/12/15 07:39:06;;;;;;;27.35;4.28;;;;;;;;;;4974041;28;20129;-65
2022/12/15 07:41:32;;;;;;;29.23;4.80;;;;;;;;;;4972829;28;20108;-70
2022/12/15 07:43:58;;;;;;;34.08;5.65;;;;;;;;;;4976377;28;20311;-65
2022/12/15 07:46:25;;;;;;;;;;;;;;;;;;4975306;28;20153;-65
2022/12/15 07:48:52;;;;;;;34.38;5.50;;;;;;;;;;4973884;28;20450;-66
2022/12/15 07:51:19;;;;;;;32.28;5.18;;;;;;;;;;4973254;28;20045;-66
2022/12/15 07:53:45;;;;;;;30.92;4.95;;;;;;;;;;4974435;28;20029;-66
2022/12/15 07:56:12;;;;;;;33.42;5.97;;;;;;;;;;4975872;28;20037;-66
2022/12/15 07:58:38;;;;;;;30.45;5.38;;;;;;;;;;4972570;28;20503;-66
2022/12/15 08:01:06;;;;;;;33.30;5.35;;;;;;;;;;4974835;28;20451;-66
2022/12/15 08:03:32;;;;;;;30.88;5.90;;;;;;;;;;4983471;28;20104;-66
2022/12/15 08:05:58;;;;;;;;;;;;;;;;;;4976585;28;20460;-67
2022/12/15 08:08:24;;;;;;;31.77;4.28;;;;;;;;;;4973580;28;19971;-65
2022/12/15 08:10:51;;;;;;;27.17;4.88;;;;;;;;;;4975313;28;20687;-65
2022/12/15 08:13:17;;;;;;;32.58;5.47;;;;;;;;;;4976076;28;20566;-65
2022/12/15 08:15:43;;;;;;;30.20;5.63;;;;;;;;;;4978879;28;20029;-66
2022/12/15 08:18:09;;;;;;;35.20;6.25;;;;;;;;;;4979414;28;20466;-66
2022/12/15 08:20:36;;;;;;;30.77;5.43;;;;;;;;;;4967950;28;20384;-66
2022/12/15 08:23:02;;;;;;;35.45;6.22;;;;;;;;;;4977313;28;20118;-66
2022/12/15 08:25:28;;;;;;;34.17;6.10;;;;;;;;;;4974587;28;20041;-66
2022/12/15 08:27:55;;;;;;;26.95;5.15;;;;;;;;;;4978071;28;20030;-66
2022/12/15 08:30:21;;;;;;;31.27;5.70;;;;;;;;;;4968603;28;20065;-66
2022/12/15 08:32:48;;;;;;;31.55;6.05;;;;;;;;;;4977161;28;20032;-66
2022/12/15 08:35:14;;;;;;;;;;;;;;;;;;4990966;28;20026;-67
2022/12/15 08:37:41;;;;;;;33.05;5.97;;;;;;;;;;4977663;28;19918;-68
2022/12/15 08:40:08;;;;;;;31.80;6.38;;;;;;;;;;4979241;28;20026;-67
2022/12/15 08:42:35;;;;;;;36.78;6.00;;;;;;;;;;4975022;28;20092;-66
2022/12/15 08:45:01;;;;;;;29.42;5.45;;;;;;;;;;4979029;28;20033;-65
2022/12/15 08:47:27;;;;;;;30.90;5.25;;;;;;;;;;4978081;28;20037;-67
2022/12/15 08:49:54;;;;;;;32.50;5.63;;;;;;;;;;4975858;28;20033;-68
2022/12/15 08:52:21;;;;;;;28.80;4.95;;;;;;;;;;4973019;28;20056;-66
2022/12/15 08:54:47;;;;;;;24.58;5.05;;;;;;;;;;4976424;28;20034;-67
2022/12/15 08:57:13;;;;;;;22.27;4.15;;;;;;;;;;4971206;28;20505;-67
2022/12/15 08:59:39;;;;;;;21.13;4.80;;;;;;;;;;4978755;28;20048;-67
2022/12/15 09:02:06;;;;;;;18.48;3.05;;;;;;;;;;4975607;28;20026;-67
2022/12/15 09:04:32;;;;;;;16.00;3.15;;;;;;;;;;4971809;28;20030;-67
2022/12/15 09:06:58;;;;;;;;;;;;;;;;;;4980227;28;20398;-69
2022/12/15 09:09:24;;;;;;;17.60;3.33;;;;;;;;;;4972664;28;19913;-67
2022/12/15 09:11:50;;;;;;;14.25;2.45;;;;;;;;;;4973858;28;20108;-66
2022/12/15 09:14:17;;;;;;;14.68;2.65;;;;;;;;;;4972035;28;20048;-67
2022/12/15 09:16:44;;;;;;;11.82;1.92;;;;;;;;;;4974131;28;20250;-66
2022/12/15 09:19:10;;;;;;;13.32;2.20;;;;;;;;;;4978012;28;20085;-66
2022/12/15 09:21:36;;;;;;;12.40;2.05;;;;;;;;;;4970712;28;20240;-66
2022/12/15 09:24:03;;;;;;;10.43;1.65;;;;;;;;;;4970902;28;20030;-65
2022/12/15 09:26:30;;;;;;;11.02;2.13;;;;;;;;;;4985469;28;20416;-66
2022/12/15 09:28:56;;;;;;;14.80;2.42;;;;;;;;;;4975093;28;20036;-66
2022/12/15 09:31:24;;;;;;;16.75;2.63;;;;;;;;;;4971928;28;20045;-66
2022/12/15 09:33:51;;;;;;;13.18;2.28;;;;;;;;;;4976756;28;20029;-67
2022/12/15 09:36:18;;;;;;;15.32;2.10;;;;;;;;;;4981311;28;20036;-67
2022/12/15 09:38:44;;;;;;;14.75;2.40;;;;;;;;;;4970506;28;20037;-65
2022/12/15 09:41:13;;;;;;;14.85;2.35;;;;;;;;;;4971353;28;20026;-66
2022/12/15 09:43:45;;;;;;;12.15;2.13;;;;;;;;;;4975189;28;20040;-65
2022/12/15 09:46:23;;;;;;;14.65;2.10;;;;;;;;;;4974456;28;20463;-68
2022/12/15 09:48:49;;;;;;;10.52;2.00;;;;;;;;;;4992236;28;20290;-66
2022/12/15 09:51:17;;;;;;;12.77;2.33;;;;;;;;;;4971997;28;20076;-66
2022/12/15 09:53:43;;;;;;;11.15;2.10;;;;;;;;;;4976013;28;20072;-66
2022/12/15 09:56:09;;;;;;;;;;;;;;;;;;4982865;28;20139;-66
2022/12/15 09:58:35;;;;;;;11.80;2.30;;;;;;;;;;4975255;28;19918;-66
2022/12/15 10:01:01;;;;;;;;;;;;;;;;;;4975208;28;20790;-65
2022/12/15 10:03:29;;;;;;;11.20;2.08;;;;;;;;;;4975372;28;19921;-65
2022/12/15 10:05:55;;;;;;;12.40;2.03;;;;;;;;;;4974916;28;20045;-66
2022/12/15 10:08:21;;;;;;;;;;;;;;;;;;4967304;28;20045;-65
2022/12/15 10:11:16;;;;;;;7.18;1.33;;;;;;;;;;4992312;28;20319;-68
2022/12/15 10:13:47;;;;;;;9.10;1.75;;;;;;;;;;4976679;28;20049;-66
2022/12/15 10:16:31;;;;;;;10.52;2.00;;;;;;;;;;4973506;28;20133;-66
2022/12/15 10:19:13;;;;;;;8.70;1.50;;;;;;;;;;4971870;28;20078;-67
2022/12/15 10:21:39;;;;;;;8.10;1.60;;;;;;;;;;4968547;28;20916;-67
2022/12/15 10:24:13;;;;;;;7.78;1.25;;;;;;;;;;4977507;28;20354;-66
2022/12/15 10:26:40;;;;;;;8.20;1.30;;;;;;;;;;4969929;28;20321;-68
2022/12/15 10:29:22;;;;;;;7.15;1.40;;;;;;;;;;4977171;28;20118;-67
2022/12/15 10:31:49;;;;;;;7.60;1.42;;;;;;;;;;4974816;28;20487;-67
2022/12/15 10:34:24;;;;;;;6.30;1.38;;;;;;;;;;4972079;28;20108;-67
2022/12/15 10:36:51;;;;;;;10.77;1.50;;;;;;;;;;4974086;28;20037;-67
2022/12/15 10:39:17;;;;;;;7.90;1.17;;;;;;;;;;4967964;28;20103;-67
2022/12/15 10:41:43;;;;;;;8.27;1.30;;;;;;;;;;4971415;28;20454;-67
2022/12/15 10:44:25;;;;;;;5.88;1.15;;;;;;;;;;4975996;28;20032;-67
2022/12/15 10:46:55;;;;;;;5.82;1.10;;;;;;;;;;4970891;28;20113;-67
2022/12/15 10:49:23;;;;;;;7.75;1.35;;;;;;;;;;4972405;28;20033;-67
2022/12/15 10:51:59;;;;;;;6.50;1.27;;;;;;;;;;4975483;28;20030;-66
2022/12/15 10:54:29;;;;;;;8.32;1.83;;;;;;;;;;4974850;28;20034;-67
2022/12/15 10:56:56;;;;;;;8.02;1.35;;;;;;;;;;4973761;28;20038;-67
2022/12/15 10:59:22;;;;;;;7.45;1.17;;;;;;;;;;4969837;28;20377;-67
2022/12/15 11:01:49;;;;;;;6.32;1.23;;;;;;;;;;4975442;28;20045;-66
2022/12/15 11:04:28;;;;;;;7.68;1.23;;;;;;;;;;4975032;28;20040;-66
2022/12/15 11:06:59;;;;;;;6.78;1.40;;;;;;;;;;4973480;28;20034;-66
2022/12/15 11:09:35;;;;;;;8.68;1.70;;;;;;;;;;4968994;28;20053;-66
2022/12/15 11:14:48;;;;;;;6.68;1.67;;;;;;;;;;4971108;28;20541;-68
2022/12/15 11:17:16;;;;;;;7.28;1.58;;;;;;;;;;4970198;28;20575;-66
2022/12/15 11:20:03;;;;;;;7.93;1.77;;;;;;;;;;4970301;28;20546;-66
2022/12/15 11:22:42;;;;;;;8.48;1.67;;;;;;;;;;4965925;28;20044;-66
2022/12/15 11:25:20;;;;;;;7.05;1.33;;;;;;;;;;4972061;28;20053;-66
2022/12/15 11:27:48;;;;;;;7.90;1.48;;;;;;;;;;4974243;28;20039;-68
2022/12/15 11:30:16;;;;;;;7.28;1.20;;;;;;;;;;4972388;28;20036;-67
2022/12/15 11:32:46;;;;;;;4.32;0.95;;;;;;;;;;4967808;28;20515;-68
2022/12/15 11:35:21;;;;;;;2.65;0.80;;;;;;;;;;4971446;28;20034;-68
2022/12/15 11:37:51;;;;;;;4.45;0.88;;;;;;;;;;4969782;28;20362;-66
2022/12/15 11:40:23;;;;;;;6.07;1.10;;;;;;;;;;4971460;28;20034;-66
2022/12/15 11:42:52;;;;;;;7.30;0.95;;;;;;;;;;4974705;28;20111;-66
2022/12/15 11:45:30;;;;;;;6.85;1.08;;;;;;;;;;4973976;28;20049;-66
2022/12/15 11:48:01;;;;;;;5.68;1.10;;;;;;;;;;4973341;28;20651;-66
2022/12/15 11:50:36;;;;;;;8.05;1.40;;;;;;;;;;4969606;28;20035;-67
2022/12/15 11:53:22;;;;;;;7.00;1.08;;;;;;;;;;4974253;28;20030;-67
2022/12/15 11:56:02;;;;;;;7.63;1.10;;;;;;;;;;4973523;28;20022;-67
2022/12/15 11:58:28;;;;;;;5.45;0.88;;;;;;;;;;4967859;28;20060;-66
2022/12/15 12:01:02;;;;;;;9.75;1.10;;;;;;;;;;4970652;28;20132;-66
2022/12/15 12:03:47;;;;;;;5.53;0.82;;;;;;;;;;4972092;28;20034;-66
2022/12/15 12:06:23;;;;;;;5.78;1.00;;;;;;;;;;4967802;28;20048;-66
2022/12/15 12:09:05;;;;;;;8.40;1.17;;;;;;;;;;4972255;28;20562;-67
2022/12/15 12:11:40;;;;;;;6.82;1.13;;;;;;;;;;4965308;28;20196;-66
2022/12/15 12:14:06;;;;;;;4.50;0.93;;;;;;;;;;4975508;28;20041;-67
2022/12/15 12:16:50;;;;;;;5.90;1.13;;;;;;;;;;4970601;28;20065;-66
2022/12/15 12:19:24;;;;;;;5.82;1.30;;;;;;;;;;4971394;28;20100;-66
2022/12/15 12:21:53;;;;;;;6.93;1.20;;;;;;;;;;4976726;28;20305;-66
2022/12/15 12:24:24;;;;;;;6.40;1.42;;;;;;;;;;4973734;28;20092;-66
2022/12/15 12:26:50;;;;;;;8.57;1.38;;;;;;;;;;4975149;28;20037;-67
2022/12/15 12:29:17;;;;;;;9.27;1.48;;;;;;;;;;4972954;28;20029;-67
2022/12/15 12:31:54;;;;;;;7.70;1.50;;;;;;;;;;4976499;28;20730;-67
2022/12/15 12:34:27;;;;;;;11.95;1.73;;;;;;;;;;4970422;28;20036;-69
2022/12/15 12:36:54;;;;;;;6.88;1.20;;;;;;;;;;4992582;28;20457;-68
2022/12/15 12:39:22;;;;;;;8.23;1.33;;;;;;;;;;4975513;28;20022;-66
2022/12/15 12:42:00;;;;;;;6.82;1.40;;;;;;;;;;4975371;28;20033;-66
2022/12/15 12:44:31;;;;;;;7.15;1.30;;;;;;;;;;4972744;28;20222;-66
2022/12/15 12:47:03;;;;;;;8.77;1.95;;;;;;;;;;4979894;28;20034;-66
2022/12/15 12:49:30;;;;;;;11.38;2.40;;;;;;;;;;4973303;28;20036;-67
2022/12/15 12:51:58;;;;;;;11.77;2.42;;;;;;;;;;4976140;28;20037;-66
2022/12/15 12:54:36;;;;;;;9.93;2.00;;;;;;;;;;4968686;28;20026;-66
2022/12/15 12:57:22;;;;;;;10.68;2.20;;;;;;;;;;4974279;28;20461;-66
2022/12/15 13:00:11;;;;;;;12.38;1.80;;;;;;;;;;4966036;28;20038;-67
2022/12/15 13:02:40;;;;;;;7.88;1.92;;;;;;;;;;4964158;28;20029;-66
2022/12/15 13:05:27;;;;;;;10.98;2.35;;;;;;;;;;4976796;28;20511;-67
2022/12/15 13:08:13;;;;;;;11.38;2.20;;;;;;;;;;4976872;28;20055;-67
2022/12/15 13:10:41;;;;;;;11.00;1.92;;;;;;;;;;4932367;28;20046;-68
2022/12/15 13:13:36;;;;;;;10.90;2.40;;;;;;;;;;4976248;28;20050;-66
2022/12/15 13:16:23;;;;;;;11.00;2.42;;;;;;;;;;4975789;28;20032;-67
2022/12/15 13:19:03;;;;;;;12.95;2.67;;;;;;;;;;4973844;28;20087;-66
2022/12/15 13:21:44;;;;;;;10.13;1.60;;;;;;;;;;4971525;28;20022;-68
2022/12/15 13:24:29;;;;;;;12.70;2.00;;;;;;;;;;4971248;28;20344;-66
2022/12/15 13:27:05;;;;;;;10.80;2.05;;;;;;;;;;4977636;28;20181;-67
2022/12/15 13:29:32;;;;;;;12.00;2.30;;;;;;;;;;4969351;28;20022;-66
2022/12/15 13:31:59;;;;;;;12.38;2.25;;;;;;;;;;4973382;28;20041;-66
2022/12/15 13:34:26;;;;;;;13.57;2.10;;;;;;;;;;4971487;28;20463;-68
2022/12/15 13:36:53;;;;;;;15.75;2.45;;;;;;;;;;4976727;28;20045;-66
2022/12/15 13:39:19;;;;;;;10.98;1.75;;;;;;;;;;4972635;28;20042;-66
2022/12/15 13:41:50;;;;;;;12.85;2.30;;;;;;;;;;4971774;28;20065;-68
2022/12/15 13:44:34;;;;;;;11.10;2.20;;;;;;;;;;4970987;28;20036;-68
2022/12/15 13:47:08;;;;;;;10.98;2.05;;;;;;;;;;4978146;28;20226;-66
2022/12/15 13:49:36;;;;;;;11.32;2.30;;;;;;;;;;4971902;28;20091;-67
2022/12/15 13:52:10;;;;;;;11.02;2.40;;;;;;;;;;4971869;28;20050;-67
2022/12/15 13:54:39;;;;;;;10.38;2.00;;;;;;;;;;4971982;28;20040;-67
2022/12/15 13:57:09;;;;;;;10.57;1.60;;;;;;;;;;4971307;28;20113;-67
2022/12/15 13:59:44;;;;;;;10.77;2.05;;;;;;;;;;4971257;28;20030;-67
2022/12/15 14:02:26;;;;;;;10.48;2.10;;;;;;;;;;4975784;28;20550;-66
2022/12/15 14:05:11;;;;;;;16.10;2.80;;;;;;;;;;4976898;28;20080;-67
2022/12/15 14:07:49;;;;;;;10.95;2.05;;;;;;;;;;4972196;28;20427;-66
2022/12/15 14:10:20;;;;;;;16.27;3.10;;;;;;;;;;4968270;28;21768;-66
2022/12/15 14:12:48;;;;;;;14.05;2.40;;;;;;;;;;4979931;28;20041;-67
2022/12/15 14:15:18;;;;;;;12.32;2.30;;;;;;;;;;4973822;28;20030;-66
2022/12/15 14:17:47;;;;;;;15.40;2.63;;;;;;;;;;4974220;28;20025;-69
2022/12/15 14:20:17;;;;;;;19.90;5.20;;;;;;;;;;4974508;28;20464;-66
2022/12/15 14:22:43;;;;;;;22.35;10.27;;;;;;;;;;4974920;28;20135;-66
2022/12/15 14:25:16;;;;;;;21.70;5.05;;;;;;;;;;4971958;28;20424;-66
2022/12/15 14:27:42;;;;;;;20.90;6.45;;;;;;;;;;4976401;28;20021;-67
2022/12/15 14:30:08;;;;;;;;;;;;;;;;;;4973274;28;20034;-66
2022/12/15 14:32:34;;;;;;;24.30;6.07;;;;;;;;;;4971247;28;19925;-67
2022/12/15 14:35:00;;;;;;;16.10;3.10;;;;;;;;;;4975005;28;20535;-67
2022/12/15 14:37:28;;;;;;;17.77;3.30;;;;;;;;;;4970130;28;20125;-67
2022/12/15 14:39:54;;;;;;;16.50;3.33;;;;;;;;;;4975333;28;20383;-66
2022/12/15 14:42:25;;;;;;;21.75;3.60;;;;;;;;;;4967516;28;20151;-68
2022/12/15 14:44:52;;;;;;;16.65;4.70;;;;;;;;;;4975352;28;20029;-68
2022/12/15 14:47:25;;;;;;;20.48;7.03;;;;;;;;;;4973436;28;20098;-68
2022/12/15 14:49:52;;;;;;;24.10;5.45;;;;;;;;;;4974325;28;20558;-66
2022/12/15 14:52:18;;;;;;;26.45;5.25;;;;;;;;;;4967947;28;20027;-66
2022/12/15 14:54:53;;;;;;;21.23;6.10;;;;;;;;;;4974327;28;21728;-66
2022/12/15 14:57:22;;;;;;;22.90;5.07;;;;;;;;;;4969664;28;21154;-66
2022/12/15 14:59:50;;;;;;;24.60;7.63;;;;;;;;;;4976376;28;20613;-66
2022/12/15 15:02:21;;;;;;;27.55;8.13;;;;;;;;;;4974056;28;20149;-67
2022/12/15 15:05:06;;;;;;;23.75;8.48;;;;;;;;;;4978661;28;20108;-68
2022/12/15 15:07:33;;;;;;;20.02;4.72;;;;;;;;;;4971714;28;20030;-67
2022/12/15 15:10:00;;;;;;;24.67;4.35;;;;;;;;;;4974808;28;20697;-66
2022/12/15 15:12:38;;;;;;;22.92;3.85;;;;;;;;;;4971713;28;20046;-66
2022/12/15 15:15:07;;;;;;;22.92;4.93;;;;;;;;;;4973130;28;20100;-66
2022/12/15 15:17:37;;;;;;;37.70;15.48;;;;;;;;;;4970781;28;20032;-66
2022/12/15 15:20:08;;;;;;;25.45;7.97;;;;;;;;;;4974496;28;20034;-66
2022/12/15 15:22:44;;;;;;;19.67;4.35;;;;;;;;;;4967867;28;20060;-66
2022/12/15 15:25:40;;;;;;;23.08;6.82;;;;;;;;;;4974798;28;20030;-66
2022/12/15 15:28:15;;;;;;;22.25;5.25;;;;;;;;;;4965955;28;20042;-66
2022/12/15 15:30:42;;;;;;;24.10;5.55;;;;;;;;;;4975251;28;20037;-68
2022/12/15 15:33:09;;;;;;;20.70;5.93;;;;;;;;;;4977864;28;20030;-66
2022/12/15 15:35:35;;;;;;;31.73;13.10;;;;;;;;;;4973822;28;20419;-67
2022/12/15 15:38:06;;;;;;;32.40;10.77;;;;;;;;;;4977701;28;20144;-66
2022/12/15 15:40:32;;;;;;;37.25;12.55;;;;;;;;;;4973089;28;20553;-67
2022/12/15 15:42:59;;;;;;;26.25;7.75;;;;;;;;;;4977051;28;20050;-67
2022/12/15 15:45:25;;;;;;;33.00;10.57;;;;;;;;;;4974531;28;20376;-67
2022/12/15 15:47:51;;;;;;;;;;;;;;;;;;4978151;28;20018;-67
2022/12/15 15:50:20;;;;;;;29.95;8.18;;;;;;;;;;4973852;28;19921;-67
2022/12/15 15:52:47;;;;;;;21.23;6.40;;;;;;;;;;4971884;28;20068;-67
2022/12/15 15:55:14;;;;;;;28.98;6.18;;;;;;;;;;4976682;28;20124;-68
2022/12/15 15:57:40;;;;;;;26.17;5.35;;;;;;;;;;4978134;28;20033;-68
2022/12/15 16:00:14;;;;;;;26.98;6.30;;;;;;;;;;4979305;28;20037;-66
2022/12/15 16:02:41;;;;;;;30.13;9.65;;;;;;;;;;4981501;28;21241;-67
2022/12/15 16:05:07;;;;;;;31.48;9.70;;;;;;;;;;4981434;28;20039;-66
2022/12/15 16:07:33;;;;;;;32.08;8.18;;;;;;;;;;4975609;28;20350;-67
2022/12/15 16:09:59;;;;;;;;;;;;;;;;;;4982024;28;20029;-67
2022/12/15 16:12:27;;;;;;;31.65;9.88;;;;;;;;;;4979347;28;19928;-69
2022/12/15 16:14:57;;;;;;;24.63;7.13;;;;;;;;;;4976419;28;20085;-67
2022/12/15 16:17:23;;;;;;;26.80;7.15;;;;;;;;;;4981778;28;20060;-67
2022/12/15 16:19:50;;;;;;;39.13;19.50;;;;;;;;;;4978846;28;20080;-66
2022/12/15 16:22:17;;;;;;;89.55;60.70;;;;;;;;;;4980214;28;20093;-66
2022/12/15 16:24:43;;;;;;;57.90;37.47;;;;;;;;;;4974924;28;20042;-68
2022/12/15 16:27:09;;;;;;;;;;;;;;;;;;4974697;28;20026;-66
2022/12/15 16:29:36;;;;;;;25.73;7.75;;;;;;;;;;4976651;28;20498;-66
2022/12/15 16:32:02;;;;;;;47.72;28.90;;;;;;;;;;4978313;28;20056;-68
2022/12/15 16:34:28;;;;;;;33.63;15.68;;;;;;;;;;4973966;28;20030;-66
2022/12/15 16:36:54;;;;;;;32.67;12.43;;;;;;;;;;4972359;28;20419;-66
2022/12/15 16:39:20;;;;;;;30.33;9.52;;;;;;;;;;4975667;28;20286;-66
2022/12/15 16:41:46;;;;;;;30.45;10.18;;;;;;;;;;4975805;28;20038;-66
2022/12/15 16:44:13;;;;;;;31.30;9.75;;;;;;;;;;4974758;28;20390;-67
2022/12/15 16:46:38;;;;;;;;;;;;;;;;;;4977932;28;20129;-66
2022/12/15 16:49:05;;;;;;;32.80;11.02;;;;;;;;;;4979516;28;20002;-66
2022/12/15 16:51:36;;;;;;;32.88;12.68;;;;;;;;;;4971506;28;20461;-68
2022/12/15 16:54:03;;;;;;;33.10;8.75;;;;;;;;;;4981993;28;21144;-68
2022/12/15 16:56:29;;;;;;;36.17;8.93;;;;;;;;;;4973868;28;20389;-67
2022/12/15 16:58:56;;;;;;;32.88;7.10;;;;;;;;;;4981931;28;20065;-66
2022/12/15 17:01:22;;;;;;;33.70;7.28;;;;;;;;;;4977079;28;20503;-65
2022/12/15 17:03:48;;;;;;;28.10;7.03;;;;;;;;;;4981721;28;20141;-66
2022/12/15 17:06:14;;;;;;;;;;;;;;;;;;4976809;28;20484;-65
2022/12/15 17:08:45;;;;;;;27.73;7.25;;;;;;;;;;4980905;28;19961;-66
2022/12/15 17:11:18;;;;;;;36.08;7.75;;;;;;;;;;4982300;28;20088;-66
2022/12/15 17:13:46;;;;;;;33.00;9.15;;;;;;;;;;4980556;28;20428;-66
2022/12/15 17:16:13;;;;;;;35.13;7.65;;;;;;;;;;4984545;28;20080;-66